sensor_id;sensor_type;location;lat;lon;timestamp;pressure;altitude;pressure_sealevel;temperature;humidity
15229;BME280;7717;47.792;12.076;2023-01-15T00:01:19;95444.06;;;6.29;100.00
15229;BME280;7717;47.792;12.076;2023-01-15T00:03:45;95433.88;;;6.17;100.00
15229;BME280;7717;47.792;12.076;2023-01-15T00:06:10;95433.06;;;6.19;100.00
15229;BME280;7717;47.792;12.076;2023-01-15T00:08:36;95395.75;;;6.58;95.58
15229;BME280;7717;47.792;12.076;2023-01-15T00:11:04;95368.59;;;6.66;94.18
15229;BME280;7717;47.792;12.076;2023-01-15T00:13:30;95392.31;;;6.72;94.47
15229;BME280;7717;47.792;12.076;2023-01-15T00:16:12;95376.22;;;6.63;93.17
15229;BME280;7717;47.792;12.076;2023-01-15T00:18:38;95405.03;;;6.58;94.83
15229;BME280;7717;47.792;12.076;2023-01-15T00:21:05;95415.16;;;6.90;96.29
15229;BME280;7717;47.792;12.076;2023-01-15T00:23:33;95408.34;;;6.95;95.47
15229;BME280;7717;47.792;12.076;2023-01-15T00:26:19;95406.72;;;6.71;97.31
15229;BME280;7717;47.792;12.076;2023-01-15T00:29:03;95380.50;;;6.55;94.76
15229;BME280;7717;47.792;12.076;2023-01-15T00:31:30;95401.66;;;6.53;97.37
15229;BME280;7717;47.792;12.076;2023-01-15T00:33:56;95401.69;;;6.43;97.93
15229;BME280;7717;47.792;12.076;2023-01-15T00:36:21;95387.31;;;6.30;97.25
15229;BME280;7717;47.792;12.076;2023-01-15T00:38:47;95400.84;;;6.15;98.70
15229;BME280;7717;47.792;12.076;2023-01-15T00:41:12;95375.44;;;6.23;96.95
15229;BME280;7717;47.792;12.076;2023-01-15T00:43:38;95372.03;;;6.44;97.48
15229;BME280;7717;47.792;12.076;2023-01-15T00:46:03;95366.91;;;6.53;99.85
15229;BME280;7717;47.792;12.076;2023-01-15T00:48:30;95369.44;;;6.58;97.17
15229;BME280;7717;47.792;12.076;2023-01-15T00:50:56;95365.22;;;6.64;97.00
15229;BME280;7717;47.792;12.076;2023-01-15T00:53:21;95322.69;;;7.02;92.02
15229;BME280;7717;47.792;12.076;2023-01-15T00:55:47;95322.59;;;7.20;94.15
15229;BME280;7717;47.792;12.076;2023-01-15T00:58:12;95290.34;;;7.23;91.90
15229;BME280;7717;47.792;12.076;2023-01-15T01:00:37;95296.00;;;7.62;91.82
15229;BME280;7717;47.792;12.076;2023-01-15T01:03:03;95285.81;;;7.63;90.44
15229;BME280;7717;47.792;12.076;2023-01-15T01:05:30;95261.09;;;7.73;88.72
15229;BME280;7717;47.792;12.076;2023-01-15T01:07:55;95232.03;;;7.99;86.60
15229;BME280;7717;47.792;12.076;2023-01-15T01:10:23;95203.84;;;8.11;85.41
15229;BME280;7717;47.792;12.076;2023-01-15T01:12:49;95244.44;;;8.26;87.20
15229;BME280;7717;47.792;12.076;2023-01-15T01:15:17;95195.19;;;8.24;83.97
15229;BME280;7717;47.792;12.076;2023-01-15T01:17:43;95191.81;;;8.24;83.81
15229;BME280;7717;47.792;12.076;2023-01-15T01:20:14;95166.88;;;8.51;82.91
15229;BME280;7717;47.792;12.076;2023-01-15T01:22:40;95171.84;;;8.61;82.79
15229;BME280;7717;47.792;12.076;2023-01-15T01:25:06;95153.91;;;8.66;81.62
15229;BME280;7717;47.792;12.076;2023-01-15T01:27:32;95152.13;;;8.73;81.87
15229;BME280;7717;47.792;12.076;2023-01-15T01:29:57;95188.50;;;8.86;83.62
15229;BME280;7717;47.792;12.076;2023-01-15T01:32:23;95168.94;;;8.86;82.45
15229;BME280;7717;47.792;12.076;2023-01-15T01:34:48;95151.16;;;8.80;80.59
15229;BME280;7717;47.792;12.076;2023-01-15T01:37:13;95209.16;;;8.67;84.09
15229;BME280;7717;47.792;12.076;2023-01-15T01:39:39;95177.00;;;8.55;82.16
15229;BME280;7717;47.792;12.076;2023-01-15T01:42:11;95209.22;;;8.61;84.27
15229;BME280;7717;47.792;12.076;2023-01-15T01:47:05;95171.66;;;8.75;81.35
15229;BME280;7717;47.792;12.076;2023-01-15T01:49:32;95165.75;;;8.69;81.82
15229;BME280;7717;47.792;12.076;2023-01-15T01:52:10;95162.22;;;8.79;81.42
15229;BME280;7717;47.792;12.076;2023-01-15T01:54:38;95180.00;;;8.87;82.27
15229;BME280;7717;47.792;12.076;2023-01-15T01:57:05;95206.41;;;8.82;83.60
15229;BME280;7717;47.792;12.076;2023-01-15T01:59:32;95200.47;;;8.80;83.04
15229;BME280;7717;47.792;12.076;2023-01-15T02:01:58;95187.53;;;8.94;82.11
15229;BME280;7717;47.792;12.076;2023-01-15T02:04:25;95180.03;;;8.83;81.91
15229;BME280;7717;47.792;12.076;2023-01-15T02:06:52;95180.03;;;8.83;82.66
15229;BME280;7717;47.792;12.076;2023-01-15T02:09:18;95149.47;;;8.79;80.42
15229;BME280;7717;47.792;12.076;2023-01-15T02:11:43;95158.00;;;8.76;81.44
15229;BME280;7717;47.792;12.076;2023-01-15T02:16:56;95166.59;;;8.71;82.01
15229;BME280;7717;47.792;12.076;2023-01-15T02:22:24;95142.69;;;8.76;81.75
15229;BME280;7717;47.792;12.076;2023-01-15T02:27:37;95111.13;;;8.85;80.53
15229;BME280;7717;47.792;12.076;2023-01-15T02:30:27;95098.94;;;9.01;80.59
15229;BME280;7717;47.792;12.076;2023-01-15T02:33:19;95106.53;;;9.06;81.61
15229;BME280;7717;47.792;12.076;2023-01-15T02:36:06;95063.25;;;8.99;79.33
15229;BME280;7717;47.792;12.076;2023-01-15T02:38:36;95094.69;;;9.01;81.21
15229;BME280;7717;47.792;12.076;2023-01-15T02:41:04;95061.59;;;8.95;80.37
15229;BME280;7717;47.792;12.076;2023-01-15T02:43:35;95070.19;;;8.91;80.71
15229;BME280;7717;47.792;12.076;2023-01-15T02:46:03;95048.94;;;8.91;79.72
15229;BME280;7717;47.792;12.076;2023-01-15T02:48:31;95038.69;;;8.92;79.90
15229;BME280;7717;47.792;12.076;2023-01-15T02:51:01;95037.78;;;8.96;80.09
15229;BME280;7717;47.792;12.076;2023-01-15T02:53:29;95018.94;;;9.04;79.06
15229;BME280;7717;47.792;12.076;2023-01-15T02:55:58;95042.66;;;9.09;80.48
15229;BME280;7717;47.792;12.076;2023-01-15T02:58:29;95011.97;;;9.13;79.01
15229;BME280;7717;47.792;12.076;2023-01-15T03:00:57;94999.81;;;9.26;78.45
15229;BME280;7717;47.792;12.076;2023-01-15T03:03:35;94978.50;;;9.29;78.15
15229;BME280;7717;47.792;12.076;2023-01-15T03:06:07;94978.47;;;9.30;77.76
15229;BME280;7717;47.792;12.076;2023-01-15T03:08:35;94978.44;;;9.32;77.88
15229;BME280;7717;47.792;12.076;2023-01-15T03:11:07;94975.72;;;9.41;77.91
15229;BME280;7717;47.792;12.076;2023-01-15T03:13:55;94962.22;;;9.33;77.44
15229;BME280;7717;47.792;12.076;2023-01-15T03:16:39;95001.09;;;9.49;79.96
15229;BME280;7717;47.792;12.076;2023-01-15T03:24:48;94968.69;;;9.51;77.53
15229;BME280;7717;47.792;12.076;2023-01-15T03:27:15;94979.09;;;9.42;78.74
15229;BME280;7717;47.792;12.076;2023-01-15T03:29:49;95003.13;;;9.31;78.84
15229;BME280;7717;47.792;12.076;2023-01-15T03:32:16;95013.28;;;9.33;79.85
15229;BME280;7717;47.792;12.076;2023-01-15T03:37:09;95022.69;;;9.32;80.99
15229;BME280;7717;47.792;12.076;2023-01-15T03:39:35;94986.25;;;9.24;78.62
15229;BME280;7717;47.792;12.076;2023-01-15T03:42:30;94975.09;;;9.28;78.13
15229;BME280;7717;47.792;12.076;2023-01-15T03:45:25;94960.63;;;9.29;77.63
15229;BME280;7717;47.792;12.076;2023-01-15T03:48:48;94982.88;;;9.22;79.34
15229;BME280;7717;47.792;12.076;2023-01-15T03:50:52;94965.88;;;9.21;78.00
15229;BME280;7717;47.792;12.076;2023-01-15T03:53:23;94977.28;;;9.47;79.46
15229;BME280;7717;47.792;12.076;2023-01-15T03:56:14;94964.78;;;9.33;78.44
15229;BME280;7717;47.792;12.076;2023-01-15T03:59:16;94967.06;;;9.47;78.34
15229;BME280;7717;47.792;12.076;2023-01-15T04:01:43;94951.97;;;9.34;77.78
15229;BME280;7717;47.792;12.076;2023-01-15T04:04:12;94962.97;;;9.40;79.18
15229;BME280;7717;47.792;12.076;2023-01-15T04:06:40;94946.88;;;9.34;77.51
15229;BME280;7717;47.792;12.076;2023-01-15T04:09:07;95020.06;;;9.35;82.73
15229;BME280;7717;47.792;12.076;2023-01-15T04:11:34;94947.06;;;9.27;78.52
15229;BME280;7717;47.792;12.076;2023-01-15T04:14:00;94941.25;;;9.17;78.30
15229;BME280;7717;47.792;12.076;2023-01-15T04:16:27;94953.94;;;9.22;78.77
15229;BME280;7717;47.792;12.076;2023-01-15T04:18:53;94950.19;;;9.40;77.92
15229;BME280;7717;47.792;12.076;2023-01-15T04:21:19;94996.16;;;9.40;81.01
15229;BME280;7717;47.792;12.076;2023-01-15T04:23:45;94958.03;;;9.30;78.20
15229;BME280;7717;47.792;12.076;2023-01-15T04:26:11;94952.75;;;9.40;77.59
15229;BME280;7717;47.792;12.076;2023-01-15T04:28:37;94957.78;;;9.43;79.01
15229;BME280;7717;47.792;12.076;2023-01-15T04:31:02;94901.25;;;9.19;76.56
15229;BME280;7717;47.792;12.076;2023-01-15T04:33:28;94942.63;;;9.35;78.03
15229;BME280;7717;47.792;12.076;2023-01-15T04:35:53;94947.13;;;9.22;78.45
15229;BME280;7717;47.792;12.076;2023-01-15T04:38:19;94925.31;;;9.49;77.80
15229;BME280;7717;47.792;12.076;2023-01-15T04:40:44;94940.69;;;9.46;78.56
15229;BME280;7717;47.792;12.076;2023-01-15T04:43:28;94913.41;;;9.48;76.81
15229;BME280;7717;47.792;12.076;2023-01-15T04:46:12;94936.16;;;9.59;78.56
15229;BME280;7717;47.792;12.076;2023-01-15T04:48:39;94906.69;;;9.44;76.60
15229;BME280;7717;47.792;12.076;2023-01-15T04:51:05;94894.84;;;9.40;76.87
15229;BME280;7717;47.792;12.076;2023-01-15T04:53:32;94921.81;;;9.53;77.89
15229;BME280;7717;47.792;12.076;2023-01-15T04:56:02;94919.47;;;9.44;78.20
15229;BME280;7717;47.792;12.076;2023-01-15T04:58:28;94897.25;;;9.48;77.46
15229;BME280;7717;47.792;12.076;2023-01-15T05:00:53;94878.69;;;9.40;76.46
15229;BME280;7717;47.792;12.076;2023-01-15T05:03:19;94863.38;;;9.40;75.78
15229;BME280;7717;47.792;12.076;2023-01-15T05:05:44;94886.03;;;9.55;76.14
15229;BME280;7717;47.792;12.076;2023-01-15T05:08:09;94858.97;;;9.46;75.26
15229;BME280;7717;47.792;12.076;2023-01-15T05:10:35;94912.38;;;9.57;78.25
15229;BME280;7717;47.792;12.076;2023-01-15T05:13:00;94876.75;;;9.51;75.58
15229;BME280;7717;47.792;12.076;2023-01-15T05:15:26;94917.66;;;9.48;78.33
15229;BME280;7717;47.792;12.076;2023-01-15T05:17:51;94871.97;;;9.35;76.04
15229;BME280;7717;47.792;12.076;2023-01-15T05:20:17;94876.34;;;9.30;77.06
15229;BME280;7717;47.792;12.076;2023-01-15T05:22:42;94856.63;;;9.35;75.69
15229;BME280;7717;47.792;12.076;2023-01-15T05:25:07;94854.28;;;9.26;75.63
15229;BME280;7717;47.792;12.076;2023-01-15T05:27:33;94836.88;;;9.44;74.69
15229;BME280;7717;47.792;12.076;2023-01-15T05:29:58;94843.72;;;9.43;75.21
15229;BME280;7717;47.792;12.076;2023-01-15T05:32:24;94834.66;;;9.30;76.08
15229;BME280;7717;47.792;12.076;2023-01-15T05:34:49;94832.09;;;9.30;74.99
15229;BME280;7717;47.792;12.076;2023-01-15T05:37:14;94845.56;;;9.36;76.12
15229;BME280;7717;47.792;12.076;2023-01-15T05:39:40;94846.59;;;9.28;76.21
15229;BME280;7717;47.792;12.076;2023-01-15T05:42:05;94885.53;;;9.37;78.40
15229;BME280;7717;47.792;12.076;2023-01-15T05:44:32;94866.00;;;9.36;75.96
15229;BME280;7717;47.792;12.076;2023-01-15T05:46:59;94890.25;;;9.14;76.71
15229;BME280;7717;47.792;12.076;2023-01-15T05:49:27;94889.94;;;9.31;77.50
15229;BME280;7717;47.792;12.076;2023-01-15T05:51:55;94880.31;;;9.42;76.50
15229;BME280;7717;47.792;12.076;2023-01-15T05:54:23;94920.88;;;9.15;78.27
15229;BME280;7717;47.792;12.076;2023-01-15T05:56:49;94902.09;;;9.18;76.42
15229;BME280;7717;47.792;12.076;2023-01-15T05:59:16;94961.00;;;9.09;80.59
15229;BME280;7717;47.792;12.076;2023-01-15T06:01:42;94975.41;;;9.11;81.75
15229;BME280;7717;47.792;12.076;2023-01-15T06:04:09;94942.38;;;9.04;78.49
15229;BME280;7717;47.792;12.076;2023-01-15T06:06:35;94972.09;;;9.06;80.78
15229;BME280;7717;47.792;12.076;2023-01-15T06:09:02;94984.94;;;9.01;80.82
15229;BME280;7717;47.792;12.076;2023-01-15T06:11:28;94971.53;;;8.90;79.39
15229;BME280;7717;47.792;12.076;2023-01-15T06:13:53;95034.63;;;8.82;82.76
15229;BME280;7717;47.792;12.076;2023-01-15T06:16:19;95144.66;;;7.86;89.31
15229;BME280;7717;47.792;12.076;2023-01-15T06:18:45;95091.91;;;7.13;94.16
15229;BME280;7717;47.792;12.076;2023-01-15T06:21:12;95079.44;;;6.82;96.78
15229;BME280;7717;47.792;12.076;2023-01-15T06:23:38;95084.75;;;6.52;97.99
15229;BME280;7717;47.792;12.076;2023-01-15T06:26:13;95073.66;;;6.62;98.96
15229;BME280;7717;47.792;12.076;2023-01-15T06:28:40;95060.06;;;6.71;100.00
15229;BME280;7717;47.792;12.076;2023-01-15T06:31:11;95071.22;;;6.49;100.00
15229;BME280;7717;47.792;12.076;2023-01-15T06:33:37;95073.84;;;6.36;100.00
15229;BME280;7717;47.792;12.076;2023-01-15T06:36:05;95076.22;;;6.62;100.00
15229;BME280;7717;47.792;12.076;2023-01-15T06:38:30;95081.25;;;6.68;100.00
15229;BME280;7717;47.792;12.076;2023-01-15T06:41:00;95088.91;;;6.65;100.00
15229;BME280;7717;47.792;12.076;2023-01-15T06:43:26;95089.69;;;6.72;100.00
15229;BME280;7717;47.792;12.076;2023-01-15T06:46:10;95086.25;;;6.79;100.00
15229;BME280;7717;47.792;12.076;2023-01-15T06:48:54;95076.06;;;6.80;100.00
15229;BME280;7717;47.792;12.076;2023-01-15T06:51:19;95081.13;;;6.83;100.00
15229;BME280;7717;47.792;12.076;2023-01-15T06:53:46;95090.50;;;6.80;100.00
15229;BME280;7717;47.792;12.076;2023-01-15T06:56:12;95093.03;;;6.83;100.00
15229;BME280;7717;47.792;12.076;2023-01-15T06:58:41;95091.34;;;6.80;100.00
15229;BME280;7717;47.792;12.076;2023-01-15T07:01:13;95067.63;;;6.78;100.00
15229;BME280;7717;47.792;12.076;2023-01-15T07:03:39;95059.16;;;6.75;100.00
15229;BME280;7717;47.792;12.076;2023-01-15T07:06:08;95071.03;;;6.74;100.00
15229;BME280;7717;47.792;12.076;2023-01-15T07:08:35;95076.16;;;6.71;100.00
15229;BME280;7717;47.792;12.076;2023-01-15T07:11:10;95076.91;;;6.81;100.00
15229;BME280;7717;47.792;12.076;2023-01-15T07:13:36;95091.28;;;6.87;100.00
15229;BME280;7717;47.792;12.076;2023-01-15T07:16:03;95103.97;;;6.90;100.00
15229;BME280;7717;47.792;12.076;2023-01-15T07:18:31;95106.56;;;6.83;100.00
15229;BME280;7717;47.792;12.076;2023-01-15T07:20:57;95109.97;;;6.82;100.00
15229;BME280;7717;47.792;12.076;2023-01-15T07:23:24;95082.97;;;6.66;100.00
15229;BME280;7717;47.792;12.076;2023-01-15T07:25:53;95104.84;;;6.85;100.00
15229;BME280;7717;47.792;12.076;2023-01-15T07:28:20;95098.00;;;6.92;100.00
15229;BME280;7717;47.792;12.076;2023-01-15T07:30:45;95113.28;;;6.91;100.00
15229;BME280;7717;47.792;12.076;2023-01-15T07:33:11;95125.19;;;6.89;100.00
15229;BME280;7717;47.792;12.076;2023-01-15T07:35:37;95088.72;;;6.91;100.00
15229;BME280;7717;47.792;12.076;2023-01-15T07:38:02;95074.25;;;6.95;100.00
15229;BME280;7717;47.792;12.076;2023-01-15T07:40:28;95055.47;;;7.11;100.00
15229;BME280;7717;47.792;12.076;2023-01-15T07:42:53;95015.31;;;7.38;99.78
15229;BME280;7717;47.792;12.076;2023-01-15T07:45:41;94954.84;;;8.18;92.36
15229;BME280;7717;47.792;12.076;2023-01-15T07:48:26;94977.72;;;8.22;91.86
15229;BME280;7717;47.792;12.076;2023-01-15T07:51:10;94949.22;;;8.52;87.71
15229;BME280;7717;47.792;12.076;2023-01-15T07:53:35;94903.00;;;9.15;83.76
15229;BME280;7717;47.792;12.076;2023-01-15T07:56:01;94895.53;;;9.47;81.92
15229;BME280;7717;47.792;12.076;2023-01-15T07:58:26;94909.72;;;9.62;81.39
15229;BME280;7717;47.792;12.076;2023-01-15T08:00:51;94927.16;;;9.83;82.13
15229;BME280;7717;47.792;12.076;2023-01-15T08:03:17;94867.81;;;9.70;79.00
15229;BME280;7717;47.792;12.076;2023-01-15T08:05:42;94882.56;;;9.95;77.97
15229;BME280;7717;47.792;12.076;2023-01-15T08:08:13;94886.69;;;10.01;77.31
15229;BME280;7717;47.792;12.076;2023-01-15T08:10:39;94866.09;;;10.07;76.55
15229;BME280;7717;47.792;12.076;2023-01-15T08:13:24;94852.59;;;10.02;75.30
15229;BME280;7717;47.792;12.076;2023-01-15T08:16:08;94909.53;;;10.08;77.62
15229;BME280;7717;47.792;12.076;2023-01-15T08:18:35;94950.84;;;9.90;79.39
15229;BME280;7717;47.792;12.076;2023-01-15T08:21:01;94966.97;;;9.92;79.47
15229;BME280;7717;47.792;12.076;2023-01-15T08:23:26;94923.50;;;9.94;77.21
15229;BME280;7717;47.792;12.076;2023-01-15T08:25:51;94963.34;;;10.02;79.12
15229;BME280;7717;47.792;12.076;2023-01-15T08:28:17;94964.34;;;9.95;78.27
15229;BME280;7717;47.792;12.076;2023-01-15T08:30:42;95011.66;;;9.74;80.80
15229;BME280;7717;47.792;12.076;2023-01-15T08:33:07;95048.91;;;9.84;83.24
15229;BME280;7717;47.792;12.076;2023-01-15T08:35:33;95064.13;;;9.47;84.05
15229;BME280;7717;47.792;12.076;2023-01-15T08:38:03;95120.44;;;8.88;87.80
15229;BME280;7717;47.792;12.076;2023-01-15T08:40:28;95113.34;;;8.49;91.86
15229;BME280;7717;47.792;12.076;2023-01-15T08:42:54;95102.53;;;8.28;95.95
15229;BME280;7717;47.792;12.076;2023-01-15T08:45:19;95078.56;;;8.43;97.67
15229;BME280;7717;47.792;12.076;2023-01-15T08:47:44;95088.78;;;8.39;97.94
15229;BME280;7717;47.792;12.076;2023-01-15T08:50:10;95097.03;;;8.58;98.28
15229;BME280;7717;47.792;12.076;2023-01-15T08:52:36;95091.19;;;8.53;98.19
15229;BME280;7717;47.792;12.076;2023-01-15T08:55:03;95090.78;;;8.79;98.74
15229;BME280;7717;47.792;12.076;2023-01-15T08:57:28;95076.19;;;8.89;98.76
15229;BME280;7717;47.792;12.076;2023-01-15T08:59:54;95049.78;;;8.91;94.75
15229;BME280;7717;47.792;12.076;2023-01-15T09:02:19;95061.75;;;8.88;95.13
15229;BME280;7717;47.792;12.076;2023-01-15T09:04:44;95031.94;;;9.38;91.96
15229;BME280;7717;47.792;12.076;2023-01-15T09:07:10;95018.22;;;9.86;88.36
15229;BME280;7717;47.792;12.076;2023-01-15T09:09:36;94954.78;;;10.05;83.86
15229;BME280;7717;47.792;12.076;2023-01-15T09:12:02;94917.84;;;10.17;83.28
15229;BME280;7717;47.792;12.076;2023-01-15T09:14:27;94863.38;;;10.15;79.65
15229;BME280;7717;47.792;12.076;2023-01-15T09:16:53;94840.25;;;10.19;78.42
15229;BME280;7717;47.792;12.076;2023-01-15T09:19:18;94827.28;;;10.27;78.40
15229;BME280;7717;47.792;12.076;2023-01-15T09:21:43;94805.28;;;10.20;76.83
15229;BME280;7717;47.792;12.076;2023-01-15T09:24:09;94795.13;;;10.17;75.15
15229;BME280;7717;47.792;12.076;2023-01-15T09:26:36;94791.34;;;10.33;75.31
15229;BME280;7717;47.792;12.076;2023-01-15T09:29:03;94808.19;;;10.40;76.44
15229;BME280;7717;47.792;12.076;2023-01-15T09:31:29;94760.38;;;10.44;74.99
15229;BME280;7717;47.792;12.076;2023-01-15T09:33:55;94790.66;;;10.58;75.24
15229;BME280;7717;47.792;12.076;2023-01-15T09:36:24;94779.47;;;10.62;74.49
15229;BME280;7717;47.792;12.076;2023-01-15T09:38:50;94844.63;;;10.82;79.02
15229;BME280;7717;47.792;12.076;2023-01-15T09:41:16;94781.03;;;10.68;74.52
15229;BME280;7717;47.792;12.076;2023-01-15T09:44:25;94761.31;;;10.71;72.94
15229;BME280;7717;47.792;12.076;2023-01-15T09:49:44;94775.94;;;11.26;75.42
15229;BME280;7717;47.792;12.076;2023-01-15T09:55:14;94816.38;;;11.44;77.59
15229;BME280;7717;47.792;12.076;2023-01-15T09:57:41;94787.94;;;11.53;76.44
15229;BME280;7717;47.792;12.076;2023-01-15T10:00:15;94734.47;;;11.43;72.91
15229;BME280;7717;47.792;12.076;2023-01-15T10:03:00;94765.84;;;11.49;74.11
15229;BME280;7717;47.792;12.076;2023-01-15T10:06:02;94721.50;;;11.47;72.46
15229;BME280;7717;47.792;12.076;2023-01-15T10:08:32;94795.19;;;11.67;76.83
15229;BME280;7717;47.792;12.076;2023-01-15T10:11:03;94788.69;;;11.84;76.20
15229;BME280;7717;47.792;12.076;2023-01-15T10:13:40;94735.63;;;11.59;72.33
15229;BME280;7717;47.792;12.076;2023-01-15T10:16:09;94746.84;;;11.57;73.46
15229;BME280;7717;47.792;12.076;2023-01-15T10:18:35;94749.78;;;11.44;73.48
15229;BME280;7717;47.792;12.076;2023-01-15T10:24:05;94751.53;;;11.42;72.10
15229;BME280;7717;47.792;12.076;2023-01-15T10:26:37;94765.00;;;11.49;73.42
15229;BME280;7717;47.792;12.076;2023-01-15T10:37:24;94797.31;;;11.53;74.15
15229;BME280;7717;47.792;12.076;2023-01-15T10:40:08;94812.22;;;11.40;74.25
15229;BME280;7717;47.792;12.076;2023-01-15T10:45:28;94941.13;;;10.78;81.42
15229;BME280;7717;47.792;12.076;2023-01-15T10:51:13;94963.41;;;10.38;81.27
15229;BME280;7717;47.792;12.076;2023-01-15T10:53:54;94897.63;;;10.43;77.40
15229;BME280;7717;47.792;12.076;2023-01-15T10:59:09;94946.38;;;10.37;79.38
15229;BME280;7717;47.792;12.076;2023-01-15T11:01:36;94966.25;;;10.24;81.05
15229;BME280;7717;47.792;12.076;2023-01-15T11:04:03;94951.81;;;10.22;80.86
15229;BME280;7717;47.792;12.076;2023-01-15T11:06:30;94960.03;;;9.99;81.98
15229;BME280;7717;47.792;12.076;2023-01-15T11:08:57;94973.19;;;9.82;82.05
15229;BME280;7717;47.792;12.076;2023-01-15T11:11:52;95042.94;;;9.85;85.46
15229;BME280;7717;47.792;12.076;2023-01-15T11:14:41;95101.41;;;9.57;85.36
15229;BME280;7717;47.792;12.076;2023-01-15T11:17:30;95122.22;;;9.35;98.19
15229;BME280;7717;47.792;12.076;2023-01-15T11:22:48;95128.91;;;8.90;100.00
15229;BME280;7717;47.792;12.076;2023-01-15T11:25:24;95142.38;;;8.36;100.00
15229;BME280;7717;47.792;12.076;2023-01-15T11:27:49;95150.47;;;7.99;100.00
15229;BME280;7717;47.792;12.076;2023-01-15T11:30:53;95165.31;;;7.60;100.00
15229;BME280;7717;47.792;12.076;2023-01-15T11:33:24;95181.59;;;7.42;100.00
15229;BME280;7717;47.792;12.076;2023-01-15T11:35:52;95179.91;;;7.37;100.00
15229;BME280;7717;47.792;12.076;2023-01-15T11:38:29;95194.47;;;7.21;100.00
15229;BME280;7717;47.792;12.076;2023-01-15T11:41:01;95205.69;;;6.97;100.00
15229;BME280;7717;47.792;12.076;2023-01-15T11:43:29;95202.19;;;7.11;100.00
15229;BME280;7717;47.792;12.076;2023-01-15T11:46:25;95232.69;;;7.14;100.00
15229;BME280;7717;47.792;12.076;2023-01-15T11:49:15;95242.91;;;7.11;100.00
15229;BME280;7717;47.792;12.076;2023-01-15T11:52:00;95257.97;;;7.38;100.00
15229;BME280;7717;47.792;12.076;2023-01-15T11:54:29;95271.66;;;7.28;100.00
15229;BME280;7717;47.792;12.076;2023-01-15T11:56:57;95283.50;;;7.29;100.00
15229;BME280;7717;47.792;12.076;2023-01-15T11:59:23;95302.22;;;7.22;100.00
15229;BME280;7717;47.792;12.076;2023-01-15T12:01:52;95304.84;;;7.10;100.00
15229;BME280;7717;47.792;12.076;2023-01-15T12:04:31;95309.09;;;7.00;100.00
15229;BME280;7717;47.792;12.076;2023-01-15T12:06:59;95323.53;;;7.02;100.00
15229;BME280;7717;47.792;12.076;2023-01-15T12:09:35;95344.75;;;6.94;100.00
15229;BME280;7717;47.792;12.076;2023-01-15T12:12:18;95341.34;;;6.98;100.00
15229;BME280;7717;47.792;12.076;2023-01-15T12:20:54;95366.81;;;6.87;100.00
15229;BME280;7717;47.792;12.076;2023-01-15T12:29:20;95382.91;;;6.95;100.00
15229;BME280;7717;47.792;12.076;2023-01-15T12:31:59;95395.72;;;6.74;100.00
15229;BME280;7717;47.792;12.076;2023-01-15T12:37:18;95416.94;;;6.48;100.00
15229;BME280;7717;47.792;12.076;2023-01-15T12:39:53;95418.63;;;6.38;100.00
15229;BME280;7717;47.792;12.076;2023-01-15T12:42:22;95411.03;;;6.20;100.00
15229;BME280;7717;47.792;12.076;2023-01-15T12:45:17;95426.25;;;6.15;100.00
15229;BME280;7717;47.792;12.076;2023-01-15T12:50:34;95441.50;;;6.15;100.00
15229;BME280;7717;47.792;12.076;2023-01-15T12:53:13;95454.19;;;5.98;100.00
15229;BME280;7717;47.792;12.076;2023-01-15T12:55:52;95454.19;;;6.01;100.00
15229;BME280;7717;47.792;12.076;2023-01-15T13:01:18;95467.69;;;5.88;100.00
15229;BME280;7717;47.792;12.076;2023-01-15T13:06:14;95479.53;;;5.84;100.00
15229;BME280;7717;47.792;12.076;2023-01-15T13:08:58;95466.00;;;5.82;100.00
15229;BME280;7717;47.792;12.076;2023-01-15T13:11:24;95471.88;;;5.70;100.00
15229;BME280;7717;47.792;12.076;2023-01-15T13:13:49;95485.41;;;5.60;100.00
15229;BME280;7717;47.792;12.076;2023-01-15T13:16:59;95492.22;;;5.83;100.00
15229;BME280;7717;47.792;12.076;2023-01-15T13:22:25;95494.75;;;5.83;100.00
15229;BME280;7717;47.792;12.076;2023-01-15T13:32:54;95507.41;;;5.58;100.00
15229;BME280;7717;47.792;12.076;2023-01-15T13:38:19;95516.56;;;5.33;100.00
15229;BME280;7717;47.792;12.076;2023-01-15T13:40:49;95525.88;;;5.34;100.00
15229;BME280;7717;47.792;12.076;2023-01-15T13:43:38;95529.22;;;5.28;100.00
15229;BME280;7717;47.792;12.076;2023-01-15T13:46:06;95539.44;;;5.37;100.00
15229;BME280;7717;47.792;12.076;2023-01-15T13:48:59;95518.31;;;5.41;100.00
15229;BME280;7717;47.792;12.076;2023-01-15T13:51:28;95540.25;;;5.30;100.00
15229;BME280;7717;47.792;12.076;2023-01-15T13:53:56;95548.53;;;5.04;100.00
15229;BME280;7717;47.792;12.076;2023-01-15T13:56:31;95540.88;;;4.97;100.00
15229;BME280;7717;47.792;12.076;2023-01-15T13:59:03;95559.50;;;4.96;100.00
15229;BME280;7717;47.792;12.076;2023-01-15T14:04:06;95565.34;;;4.87;100.00
15229;BME280;7717;47.792;12.076;2023-01-15T14:06:52;95555.25;;;4.93;100.00
15229;BME280;7717;47.792;12.076;2023-01-15T14:14:45;95577.22;;;4.94;100.00
15229;BME280;7717;47.792;12.076;2023-01-15T14:36:25;95631.84;;;4.55;100.00
15229;BME280;7717;47.792;12.076;2023-01-15T14:38:54;95631.88;;;4.60;100.00
15229;BME280;7717;47.792;12.076;2023-01-15T14:41:35;95635.16;;;4.49;100.00
15229;BME280;7717;47.792;12.076;2023-01-15T14:44:29;95633.31;;;4.33;100.00
15229;BME280;7717;47.792;12.076;2023-01-15T14:47:01;95653.47;;;4.24;100.00
15229;BME280;7717;47.792;12.076;2023-01-15T14:49:30;95654.91;;;4.03;100.00
15229;BME280;7717;47.792;12.076;2023-01-15T14:51:56;95659.00;;;3.95;100.00
15229;BME280;7717;47.792;12.076;2023-01-15T14:54:23;95666.59;;;3.95;100.00
15229;BME280;7717;47.792;12.076;2023-01-15T14:56:53;95675.81;;;3.88;100.00
15229;BME280;7717;47.792;12.076;2023-01-15T14:59:26;95673.94;;;3.75;100.00
15229;BME280;7717;47.792;12.076;2023-01-15T15:02:05;95669.09;;;3.92;100.00
15229;BME280;7717;47.792;12.076;2023-01-15T15:04:48;95665.66;;;3.85;100.00
15229;BME280;7717;47.792;12.076;2023-01-15T15:07:21;95652.97;;;3.84;100.00
15229;BME280;7717;47.792;12.076;2023-01-15T15:09:53;95673.38;;;3.94;100.00
15229;BME280;7717;47.792;12.076;2023-01-15T15:12:40;95672.69;;;4.09;100.00
15229;BME280;7717;47.792;12.076;2023-01-15T15:23:14;95663.25;;;3.94;100.00